Date,TemperatureHighF,TemperatureAvgF,TemperatureLowF,DewpointHighF,DewpointAvgF,DewpointLowF,HumidityHigh,HumidityAvg,HumidityLow,PressureMaxIn,PressureMinIn,WindSpeedMaxMPH,WindSpeedAvgMPH,GustSpeedMaxMPH,PrecipitationSumIn
2013-1-1,79,72,68,70,67,65,93,85,66,30.02,29.88,22,13,32,0.01
2013-1-2,69,69,69,68,67,67,94,94,93,29.97,29.92,20,16,30,0.02
2013-1-5,83,76,70,67,63,59,76,66,53,30.00,29.88,30,18,50,0.00
2013-1-6,86,72,60,65,62,55,87,72,46,30.01,29.85,16,5,25,0.00
2013-1-7,70,66,63,65,61,59,88,85,83,29.95,29.88,7,3,0,0.00
2013-1-10,82,75,67,65,63,60,82,67,51,29.88,29.77,15,7,24,0.00
2013-1-11,71,70,69,65,64,62,85,82,77,29.87,29.80,17,10,28,0.00
2013-1-12,80,75,69,69,67,65,89,78,61,29.89,29.79,10,6,0,0.00
2013-1-13,82,72,62,69,65,58,89,78,58,29.89,29.81,12,3,23,0.00
2013-1-14,80,73,65,72,68,61,91,84,72,29.90,29.76,18,8,27,0.02
2013-1-15,78,72,66,68,66,62,93,83,68,29.86,29.76,12,6,18,0.03
2013-1-16,79,70,62,66,61,51,92,75,38,29.87,29.75,14,5,21,0.00
2013-1-17,77,68,61,65,61,56,87,79,64,29.83,29.73,11,4,17,0.00
2013-1-18,77,69,62,64,61,59,92,78,55,29.85,29.73,17,7,23,0.08
2013-1-19,76,68,61,64,58,55,88,68,51,29.95,29.83,17,8,27,0.08
2013-1-20,68,66,65,59,58,56,76,74,70,29.94,29.90,12,10,19,0.00
2013-1-21,77,72,69,64,62,60,77,69,57,30.02,29.93,24,16,34,0.00
2013-1-22,80,71,65,67,62,58,82,73,58,30.03,29.90,23,13,32,0.00
2013-1-23,79,70,61,66,62,56,89,76,58,29.97,29.86,17,5,25,0.00
2013-1-24,80,71,64,66,63,58,90,78,56,29.98,29.89,17,6,23,0.00
2013-1-25,70,63,61,65,58,56,88,85,80,29.97,29.93,3,2,0,0.00
2013-1-26,81,74,66,67,63,59,81,68,49,29.90,29.83,15,6,20,0.00
2013-1-27,80,71,62,69,63,56,87,76,60,29.91,29.79,17,7,24,0.00
2013-1-28,76,72,69,69,68,66,93,85,72,29.91,29.79,10,5,15,0.01
2013-2-3,76,69,61,61,59,56,86,72,55,30.08,29.99,23,15,35,0.00
2013-2-4,78,71,67,65,62,57,87,74,52,30.01,29.92,28,20,44,0.00
2013-2-5,80,72,66,65,62,60,89,73,52,30.00,29.88,23,13,36,0.00
2013-2-6,77,70,65,69,66,62,93,85,73,30.00,29.89,20,11,28,0.09
2013-2-7,84,71,63,69,64,59,89,79,55,30.03,29.89,20,7,28,0.00
2013-2-8,81,71,61,68,64,57,91,78,56,30.04,29.92,21,8,26,0.00
2013-2-9,78,70,60,67,63,55,88,79,63,30.06,29.93,21,11,31,0.00
2013-2-10,81,72,69,67,64,62,86,76,56,30.10,29.94,25,14,40,0.00
2013-2-11,78,71,66,67,64,62,86,79,67,30.11,30.00,23,14,35,0.00
2013-2-14,75,74,74,62,60,59,67,61,57,30.00,29.99,18,12,27,0.00
2013-2-16,78,72,68,64,62,60,79,69,56,30.02,29.91,30,23,45,0.00
2013-2-17,76,71,68,64,62,61,86,74,65,30.06,29.93,30,22,45,0.04
2013-2-18,76,69,65,64,62,60,89,80,58,30.03,29.92,31,22,46,0.03
2013-2-21,77,72,68,68,66,65,91,83,69,30.01,29.95,25,17,37,0.17
2013-2-22,69,68,67,65,64,63,88,86,84,29.99,29.93,16,6,26,0.00
2013-2-24,74,73,72,66,65,64,78,76,74,30.01,30.00,255,16,36,0.00
2013-2-26,79,74,68,65,61,-100,85,68,53,30.07,29.91,255,20,42,0.00
2013-2-27,82,72,63,63,60,56,81,65,45,30.08,29.95,19,9,29,0.00
2013-2-28,74,62,59,62,55,53,84,79,62,30.07,30.00,18,4,29,0.00
2013-3-2,80,75,68,62,60,54,80,61,41,30.09,29.92,255,14,39,0.00
2013-3-3,78,70,66,61,59,55,76,66,50,30.10,29.97,22,15,36,0.00
2013-3-4,78,70,67,62,59,56,75,68,49,30.09,29.99,22,14,34,0.00
2013-3-5,80,71,60,64,60,52,80,69,49,30.06,29.95,19,11,31,0.00
2013-3-6,76,67,59,64,60,54,90,80,62,30.05,29.97,9,4,21,0.00
2013-3-7,78,68,61,67,62,56,89,82,63,30.02,29.89,15,4,19,0.00
2013-3-8,75,67,60,66,60,54,85,78,61,29.95,29.83,8,3,0,0.00
2013-3-9,77,72,69,68,66,63,88,79,71,29.88,29.80,21,11,31,0.01
2013-3-10,76,71,66,70,66,63,92,84,67,29.94,29.79,18,8,33,0.36
2013-3-11,78,70,66,68,65,63,92,84,69,29.98,29.88,11,4,17,0.00
2013-3-12,77,70,66,68,65,62,91,83,65,30.01,29.88,12,5,18,0.00
2013-3-13,77,69,62,65,62,59,92,80,62,30.01,29.91,15,6,25,0.00
2013-3-14,75,69,64,66,63,59,86,81,71,29.99,29.90,8,1,0,0.00
2013-3-15,77,72,66,68,64,58,93,75,57,29.90,29.80,18,7,26,0.08
2013-3-16,76,70,66,64,61,57,89,72,54,29.94,29.82,15,6,23,0.00
2013-3-17,75,69,62,62,58,52,82,69,47,29.97,29.84,13,5,21,0.00
2013-3-18,77,68,59,62,58,54,84,73,56,29.96,29.84,14,5,22,0.00
2013-3-19,80,70,60,65,60,53,85,70,46,29.94,29.84,13,4,20,0.00
2013-3-20,81,72,63,68,63,58,83,73,53,29.98,29.88,14,4,21,0.00
2013-3-21,81,75,69,70,67,63,87,78,64,29.98,29.86,17,5,24,0.00
2013-3-22,79,74,69,71,67,64,89,79,63,29.96,29.84,14,4,21,0.00
2013-3-23,76,72,69,69,67,65,93,86,76,29.95,29.84,15,7,23,0.00
2013-3-24,80,73,67,69,67,63,93,82,64,29.94,29.83,16,7,22,0.00
2013-3-25,81,72,64,70,66,60,90,80,63,29.93,29.84,18,6,24,0.00
2013-3-26,80,72,64,69,66,60,89,79,63,29.96,29.85,19,7,26,0.00
2013-3-27,80,72,65,69,65,59,89,78,65,29.93,29.82,21,9,28,0.00
2013-3-28,80,72,66,67,64,61,89,76,60,29.96,29.82,22,11,32,0.00
2013-3-29,78,70,64,68,65,60,93,84,67,29.97,29.87,20,11,32,0.00
2013-3-30,77,69,64,69,65,62,92,87,69,29.97,29.88,11,4,20,0.09
2013-3-31,75,69,64,64,58,54,92,70,51,29.96,29.87,16,9,26,0.01
2013-4-1,75,68,60,60,57,53,81,69,53,29.93,29.82,10,4,19,0.00
2013-4-2,75,68,62,61,57,54,82,70,53,30.01,29.89,15,7,24,0.00
2013-4-3,79,70,61,63,60,55,84,72,54,30.01,29.89,17,8,25,0.00
2013-4-4,81,71,61,65,61,56,86,72,49,30.00,29.89,14,4,22,0.00
2013-4-5,82,72,61,68,64,56,87,75,54,30.03,29.91,19,6,27,0.00
2013-4-6,86,75,65,70,66,61,88,75,52,30.06,29.93,16,5,24,0.00
2013-4-7,84,74,67,69,66,62,89,77,58,30.08,29.96,14,5,23,0.00
2013-4-8,84,74,64,68,65,60,90,75,53,30.01,29.85,19,5,31,0.00
2013-4-9,85,74,64,68,65,60,87,72,52,29.99,29.85,19,5,28,0.00
2013-4-10,85,75,64,67,65,59,85,71,52,29.98,29.85,16,5,22,0.00
2013-4-11,85,76,67,69,66,62,87,73,54,29.95,29.82,14,4,23,0.00
2013-4-12,83,78,72,68,66,64,81,67,56,29.89,29.80,13,5,19,0.00
2013-4-13,74,72,71,66,66,64,81,79,76,29.86,29.84,3,0,0,0.00
2013-4-15,81,76,69,71,68,63,87,78,66,29.97,29.84,13,5,22,0.00
2013-4-16,84,75,66,70,67,61,87,75,59,30.02,29.91,15,5,26,0.00
2013-4-17,86,73,64,72,64,59,85,73,55,30.05,29.92,22,5,32,0.00
2013-4-18,87,75,64,68,64,59,86,69,49,30.04,29.92,16,5,31,0.00
2013-4-19,82,72,63,69,64,57,84,74,59,30.01,29.89,16,6,24,0.00
2013-4-20,84,75,66,68,65,60,84,71,52,29.99,29.91,12,3,18,0.00
2013-4-21,81,73,65,70,65,59,84,77,63,29.97,29.87,16,3,17,0.00
2013-4-22,82,76,70,71,68,64,84,77,64,29.96,29.87,18,6,24,0.00
2013-4-23,81,76,70,72,70,64,88,79,67,29.98,29.89,16,6,23,0.02
2013-4-24,85,77,70,72,69,65,90,77,56,30.01,29.89,21,8,29,0.00
2013-4-25,89,76,69,69,66,62,85,70,46,29.98,29.83,30,8,43,0.00
2013-4-26,85,75,65,67,64,59,85,69,50,29.95,29.85,18,8,28,0.00
2013-4-27,80,71,64,67,63,58,82,75,60,29.97,29.88,11,2,10,0.00
2013-4-28,78,71,67,68,65,61,85,79,71,29.95,29.88,4,0,0,0.00
2013-4-29,82,75,67,71,67,60,82,76,65,29.91,29.82,16,6,24,0.00
2013-4-30,84,76,68,70,66,60,83,72,54,29.95,29.84,14,4,20,0.00
2013-5-1,86,76,66,68,65,61,86,71,51,29.99,29.87,21,6,32,0.00
2013-5-2,86,74,67,68,65,63,89,74,53,29.99,29.91,15,5,23,0.00
2013-5-3,85,76,67,68,65,60,83,69,47,29.98,29.87,14,5,21,0.00
2013-5-4,83,75,65,69,65,58,83,71,53,29.93,29.81,16,6,24,0.00
2013-5-5,80,74,67,71,67,61,89,79,67,29.87,29.77,19,8,28,0.17
2013-5-6,77,74,70,71,69,67,95,85,73,29.88,29.78,9,5,17,0.12
2013-5-7,82,76,68,70,67,65,90,74,64,29.91,29.83,10,4,17,0.00
2013-5-8,83,76,68,70,68,64,87,76,59,29.94,29.85,11,4,18,0.00
2013-5-9,73,71,70,68,67,65,89,87,85,29.93,29.89,3,0,0,0.00
2013-5-11,81,71,68,70,68,66,95,91,67,30.01,29.93,18,12,26,0.06
2013-5-12,78,73,70,72,69,66,92,87,78,30.01,29.90,22,13,32,0.00
2013-5-13,84,76,70,73,70,67,92,81,67,29.97,29.87,23,8,33,0.00
2013-5-14,78,72,69,70,68,65,89,85,73,30.01,29.93,14,4,20,0.00
2013-5-15,84,74,70,71,68,65,88,80,61,30.04,29.94,17,6,26,0.00
2013-5-16,80,74,69,68,65,63,84,74,62,30.03,29.95,11,4,23,0.00
2013-5-17,76,72,69,67,65,62,83,77,69,29.98,29.90,15,5,20,0.00
2013-5-18,83,74,67,71,66,61,87,78,57,29.93,29.85,19,7,25,0.04
2013-5-19,82,74,66,70,66,62,90,79,63,29.92,29.82,13,5,21,0.00
2013-5-20,80,73,66,69,67,64,93,82,63,29.91,29.81,13,5,20,0.09
2013-5-21,82,74,65,69,66,63,93,78,61,29.93,29.84,12,3,19,0.00
2013-5-22,85,76,67,72,67,61,85,74,54,29.96,29.86,11,4,21,0.00
2013-5-23,85,74,69,73,68,64,87,80,64,29.97,29.86,19,5,24,0.00
2013-5-24,82,73,69,70,67,65,88,81,63,29.98,29.92,18,8,26,0.00
2013-5-25,78,74,70,70,68,65,85,81,73,29.99,29.90,19,13,29,0.00
2013-5-26,82,74,70,68,65,61,87,75,60,30.01,29.90,16,6,30,0.00
2013-5-27,80,70,66,68,64,61,85,80,63,30.00,29.95,11,2,23,0.00
2013-5-28,81,75,73,71,69,67,83,80,70,30.01,29.97,13,2,0,0.00
2013-5-29,84,77,68,72,68,64,86,75,60,29.99,29.90,18,7,28,0.00
2013-5-30,83,74,69,71,67,64,87,80,63,29.96,29.89,10,4,17,0.00
2013-5-31,72,70,68,68,66,64,90,88,87,29.90,29.86,4,1,0,0.00
2013-6-1,90,80,70,72,69,65,86,70,50,29.99,29.84,17,6,26,0.00
2013-6-2,87,78,69,74,69,65,90,74,56,29.99,29.88,23,12,36,0.00
2013-6-3,88,78,70,70,67,64,83,67,50,29.99,29.86,21,8,34,0.00
2013-6-4,88,77,66,71,66,61,86,70,47,29.97,29.83,21,8,30,0.00
2013-6-5,84,77,70,70,67,62,84,72,57,29.96,29.84,25,15,36,0.00
2013-6-6,85,77,72,69,66,62,82,69,53,29.96,29.81,22,14,35,0.00
2013-6-7,84,77,72,68,65,63,77,66,54,29.96,29.84,22,12,36,0.00
2013-6-8,83,75,71,69,66,64,82,74,56,29.97,29.84,24,9,32,0.00
2013-6-9,79,72,69,69,66,64,85,81,70,29.99,29.92,11,2,20,0.00
2013-6-10,86,79,74,70,68,65,79,68,54,29.94,29.85,26,10,35,0.00
2013-6-11,86,77,69,70,67,65,87,72,51,29.94,29.84,18,7,32,0.00
2013-6-12,87,77,69,72,67,64,85,71,51,29.99,29.87,22,8,37,0.00
2013-6-13,87,78,70,70,67,62,84,70,48,30.00,29.89,25,11,39,0.00
2013-6-14,88,78,68,68,66,63,87,69,44,29.99,29.84,24,9,35,0.00
2013-6-15,84,76,65,70,66,59,84,72,59,29.93,29.78,27,9,38,0.00
2013-6-16,89,77,66,67,65,62,87,68,44,29.93,29.80,20,5,28,0.00
2013-6-17,88,78,67,70,66,62,85,69,50,29.99,29.86,18,6,29,0.00
2013-6-18,89,78,66,70,66,62,87,70,47,29.97,29.84,20,4,30,0.00
2013-6-19,74,74,74,68,67,67,81,79,78,29.96,29.94,3,1,10,0.00
2013-6-20,88,80,74,71,68,64,79,66,50,29.97,29.84,23,11,32,0.00
2013-6-21,85,77,70,71,67,64,84,73,56,29.96,29.85,17,7,31,0.00
2013-6-22,88,78,72,70,67,65,81,69,52,30.01,29.87,22,9,34,0.00
2013-6-23,74,73,72,67,66,65,81,78,73,30.00,29.95,15,7,24,0.00
2013-6-24,87,79,72,69,67,63,89,68,48,30.01,29.91,25,14,33,0.00
2013-6-25,80,74,67,72,68,63,91,84,75,29.99,29.92,17,8,25,0.00
2013-6-26,83,77,71,71,68,65,85,75,60,29.98,29.88,22,12,32,0.00
2013-6-27,81,72,68,67,65,62,85,79,54,29.93,29.88,17,5,25,0.00
2013-6-28,78,71,66,69,65,60,85,81,72,29.92,29.85,13,4,20,0.00
2013-6-29,86,75,66,71,67,62,87,76,54,29.94,29.82,19,8,28,0.00
2013-6-30,81,74,70,70,67,65,87,80,63,29.94,29.86,22,8,31,0.00
2013-7-1,78,73,72,70,68,65,89,82,73,29.92,29.87,17,11,24,0.00
2013-7-2,81,75,73,71,68,66,88,79,71,29.90,29.83,18,11,29,0.03
2013-7-3,76,73,69,67,66,64,86,78,68,29.88,29.83,15,6,27,0.00
2013-7-4,82,77,73,70,68,67,82,74,67,29.95,29.87,14,9,20,0.00
2013-7-5,78,71,67,71,66,62,85,83,76,29.95,29.88,8,3,0,0.01
2013-7-6,81,75,72,68,68,67,85,78,64,29.93,29.87,12,4,0,0.00
2013-7-7,84,76,68,72,68,63,88,78,66,29.92,29.77,22,10,31,0.00
2013-7-8,90,79,69,71,68,64,86,71,52,29.94,29.81,16,6,28,0.00
2013-7-9,91,80,69,70,67,64,86,67,43,30.02,29.89,20,8,32,0.00
2013-7-10,89,79,74,70,66,63,82,65,45,30.03,29.93,28,17,43,0.00
2013-7-11,87,78,71,68,66,63,85,67,46,29.99,29.86,25,12,36,0.00
2013-7-12,88,73,66,70,65,61,84,76,52,29.96,29.83,23,4,37,0.00
2013-7-13,80,72,68,68,64,62,85,77,64,29.92,29.81,20,2,17,0.00
2013-7-14,79,70,64,66,62,57,83,76,56,29.90,29.84,7,1,8,0.00
2013-7-15,82,73,69,69,66,63,87,79,63,29.92,29.82,18,4,27,0.00
2013-7-16,79,73,70,68,66,64,85,79,69,29.91,29.83,9,2,9,0.00
2013-8-2,89,81,72,70,68,66,81,65,50,29.94,29.82,25,9,34,0.00
2013-8-3,73,70,69,67,65,64,87,84,81,29.93,29.90,5,1,0,0.00
2013-8-6,84,77,71,70,66,-100,80,72,58,29.95,29.84,255,11,30,0.00
2013-8-7,88,78,69,70,67,64,86,70,49,29.96,29.85,24,8,35,0.00
2013-8-8,88,77,67,71,66,61,83,70,49,29.98,29.87,20,7,31,0.00
2013-8-9,85,76,68,74,70,62,95,79,62,29.97,29.83,23,11,36,0.07
2013-8-10,85,79,74,76,74,71,96,84,72,29.93,29.84,11,3,20,0.06
2013-8-11,90,79,74,74,71,69,89,77,55,29.94,29.84,18,6,29,0.06
2013-8-12,85,78,73,71,70,67,86,75,62,29.97,29.87,24,14,34,0.00
2013-8-13,87,79,74,71,68,65,83,70,50,29.94,29.82,22,12,35,0.00
2013-8-14,89,79,70,70,68,64,85,68,50,29.93,29.80,26,8,35,0.00
2013-8-15,86,74,69,69,67,64,87,78,51,29.93,29.86,16,6,28,0.00
2013-8-16,79,72,68,72,67,62,88,82,73,29.93,29.87,18,5,27,0.00
2013-8-17,84,77,72,68,67,65,82,72,57,29.94,29.89,17,8,27,0.00
2013-8-18,89,78,67,70,66,62,87,69,49,29.93,29.81,19,8,32,0.00
2013-8-19,86,76,66,72,66,59,83,71,55,29.92,29.84,18,6,24,0.00
2013-8-20,86,78,70,72,70,66,90,76,57,29.92,29.82,17,5,21,0.00
2013-8-21,87,78,70,72,70,66,86,75,55,29.89,29.80,17,5,23,0.00
2013-8-22,89,79,70,73,70,66,89,75,51,29.90,29.77,24,8,33,0.00
2013-8-23,87,79,72,72,70,66,90,73,54,29.91,29.81,22,11,32,0.00
2013-8-24,71,70,70,66,66,64,86,85,83,29.91,29.89,2,1,0,0.00
2013-8-28,84,80,74,71,70,65,87,72,56,29.90,29.81,255,10,24,0.00
2013-8-29,84,78,71,72,69,66,86,76,63,29.87,29.75,24,10,33,0.00
2013-8-30,89,79,69,71,68,65,88,70,52,29.94,29.82,14,5,23,0.00
2013-8-31,88,78,70,70,67,62,85,68,43,29.94,29.81,23,8,35,0.00
2013-9-1,89,79,69,70,66,60,80,63,49,29.92,29.79,16,6,27,0.00
2013-9-2,88,75,68,70,65,60,82,70,52,29.94,29.82,17,3,27,0.00
2013-9-3,86,73,65,70,64,59,85,75,55,29.93,29.86,23,5,30,0.00
2013-9-4,84,76,70,71,67,62,83,72,53,29.94,29.85,20,8,28,0.00
2013-9-5,84,76,67,71,66,60,86,73,59,30.00,29.90,17,5,26,0.00
2013-9-6,84,76,67,71,67,60,88,75,59,29.99,29.90,20,9,30,0.00
2013-9-7,91,81,72,73,71,68,91,72,51,29.95,29.81,18,5,30,0.00
2013-9-8,86,75,70,72,68,65,86,79,60,29.96,29.85,19,1,29,0.00
2013-9-9,81,75,69,70,67,62,81,76,69,29.98,29.88,18,10,24,0.00
2013-9-11,86,80,75,73,72,69,87,76,61,29.95,29.86,22,13,32,0.00
2013-9-12,85,79,73,74,72,69,91,80,67,29.93,29.81,22,9,31,0.00
2013-9-13,77,76,75,72,71,70,85,83,81,29.85,29.81,11,5,18,0.00
2013-9-17,84,84,84,70,70,70,63,62,62,29.90,29.90,8,8,0,0.00
2013-9-18,90,81,71,72,69,64,80,67,48,29.91,29.81,21,8,34,0.00
2013-9-19,90,78,68,71,67,62,87,69,50,29.95,29.83,26,8,38,0.00
2013-9-20,87,78,69,71,68,63,87,71,46,29.94,29.84,24,12,37,0.00
2013-9-21,88,79,72,69,66,63,82,64,47,29.93,29.80,20,7,35,0.00
2013-9-22,87,77,68,71,66,62,85,70,52,29.93,29.83,21,8,32,0.00
2013-9-23,88,78,68,71,67,59,85,70,40,29.91,29.79,24,9,36,0.00
2013-9-24,88,78,69,72,68,62,84,72,53,29.92,29.81,21,5,31,0.00
2013-9-25,87,78,70,70,68,65,86,72,52,29.94,29.82,22,8,34,0.00
2013-9-26,89,78,69,71,68,65,88,72,51,29.90,29.79,18,5,39,0.00
2013-9-27,87,74,68,69,66,62,82,76,51,29.92,29.86,18,2,14,0.00
2013-9-28,87,80,74,70,68,63,83,69,45,29.98,29.86,25,16,37,0.00
2013-9-29,78,74,70,69,66,64,83,79,66,29.96,29.89,16,6,22,0.00
2013-9-30,87,77,69,71,68,63,84,73,54,29.94,29.83,17,5,25,0.00
2013-10-1,89,79,70,72,68,64,83,70,52,29.92,29.80,19,6,30,0.00
2013-10-2,88,79,72,71,68,66,84,70,52,29.89,29.76,20,7,30,0.00
2013-10-3,87,79,72,71,68,66,82,70,56,29.89,29.78,15,5,21,0.00
2013-10-4,89,78,69,70,68,64,87,71,49,29.90,29.78,26,5,38,0.00
2013-10-5,89,80,73,71,67,64,82,66,45,29.91,29.78,26,10,35,0.00
2013-10-6,78,74,71,70,67,65,83,78,71,29.91,29.85,20,6,28,0.00
2013-10-19,85,82,71,73,71,67,88,68,57,29.81,29.73,14,12,26,0.00
2013-10-20,81,80,80,72,71,71,75,73,72,29.81,29.81,11,9,13,0.00
2013-12-10,83,82,77,70,69,67,74,65,59,29.93,29.81,23,18,33,0.00
2013-12-12,82,76,75,69,67,66,76,72,64,29.97,29.84,11,10,0,0.00
2013-12-14,81,80,79,68,67,65,67,62,58,29.84,29.78,13,9,21,0.00
2013-12-15,80,74,70,67,67,64,85,76,59,29.83,29.75,7,3,13,0.00
2013-12-16,80,78,77,69,68,67,74,71,64,29.88,29.80,10,9,17,0.00
2013-12-17,80,79,78,68,67,66,69,66,63,29.93,29.85,12,11,20,0.00
2013-12-18,79,77,66,70,68,63,89,72,69,29.94,29.85,17,12,24,0.00
2013-12-19,80,76,68,68,66,63,84,70,65,29.94,29.85,13,6,21,0.00